Wetterstation Vordersexau
Wetterdaten: Woche 07.03.16 - 13.03.16 (KW10)
Datum Zeit Temp. A. Feuchte A. Luftdruck Regen Wind Richtung Taupunkt Windchill Windben
07.03.2016 00:00 2,1 C 83 % 1003,0 hPa 0,0 l/m 0,0 km/h W-NW -0,5 C 2,1 C 0,0 km/h
07.03.2016 01:00 1,6 C 84 % 1002,7 hPa 0,0 l/m 0,0 km/h S -0,8 C 1,6 C 0,0 km/h
07.03.2016 02:00 1,1 C 85 % 1002,7 hPa 0,0 l/m 0,0 km/h W-SW -1,1 C 1,1 C 0,0 km/h
07.03.2016 03:00 1,4 C 86 % 1002,3 hPa 0,0 l/m 0,0 km/h S-SW -0,7 C 1,4 C 0,0 km/h
07.03.2016 04:00 0,7 C 87 % 1002,2 hPa 0,0 l/m 0,0 km/h S-SW -1,2 C 0,7 C 0,0 km/h
07.03.2016 05:00 0,1 C 88 % 1001,9 hPa 0,0 l/m 0,0 km/h S -1,6 C 0,1 C 0,0 km/h
07.03.2016 06:00 -0,6 C 88 % 1001,8 hPa 0,0 l/m 0,0 km/h S -2,3 C -0,6 C 0,0 km/h
07.03.2016 07:00 -0,2 C 88 % 1002,2 hPa 0,0 l/m 0,0 km/h SO -1,9 C -0,2 C 0,0 km/h
07.03.2016 08:00 2,7 C 88 % 1002,3 hPa 0,0 l/m 0,0 km/h SO 0,9 C 2,7 C 0,0 km/h
07.03.2016 09:00 7,4 C 82 % 1002,0 hPa 0,4 l/m 6,5 km/h S-SO 4,5 C 7,3 C 3,6 km/h
07.03.2016 10:00 9,4 C 64 % 1001,6 hPa 0,0 l/m 24,0 km/h W 2,9 C 1,3 C 13,3 km/h
07.03.2016 11:00 10,2 C 57 % 1001,6 hPa 0,0 l/m 4,5 km/h W 2,1 C 10,2 C 2,5 km/h
07.03.2016 12:00 8,2 C 59 % 1001,5 hPa 0,0 l/m 8,4 km/h SW 0,7 C 6,7 C 4,7 km/h
07.03.2016 13:00 10,2 C 56 % 1001,0 hPa 0,0 l/m 10,4 km/h W-NW 1,8 C 7,6 C 5,8 km/h
07.03.2016 14:00 8,5 C 60 % 1000,7 hPa 0,0 l/m 20,7 km/h W-NW 1,2 C 1,1 C 11,5 km/h
07.03.2016 15:00 5,4 C 70 % 1000,8 hPa 0,0 l/m 14,3 km/h W 0,4 C -0,1 C 7,9 km/h
07.03.2016 16:00 5,4 C 70 % 1001,0 hPa 0,0 l/m 5,2 km/h W 0,4 C 5,4 C 2,9 km/h
07.03.2016 17:00 4,1 C 74 % 1001,6 hPa 0,0 l/m 0,0 km/h W-NW -0,1 C 4,1 C 0,0 km/h
07.03.2016 18:00 2,8 C 81 % 1002,2 hPa 0,0 l/m 0,0 km/h W-NW -0,1 C 2,8 C 0,0 km/h
07.03.2016 19:00 1,8 C 84 % 1002,9 hPa 0,4 l/m 0,0 km/h W-NW -0,6 C 1,8 C 0,0 km/h
07.03.2016 20:00 0,8 C 85 % 1003,5 hPa 0,4 l/m 0,0 km/h W-NW -1,4 C 0,8 C 0,0 km/h
07.03.2016 21:00 0,3 C 87 % 1004,2 hPa 0,0 l/m 0,0 km/h W-NW -1,6 C 0,3 C 0,0 km/h
07.03.2016 22:00 0,3 C 87 % 1005,0 hPa 0,0 l/m 0,0 km/h W-NW -1,6 C 0,3 C 0,0 km/h
07.03.2016 23:00 0,2 C 87 % 1005,4 hPa 0,0 l/m 0,0 km/h W-NW -1,7 C 0,2 C 0,0 km/h
08.03.2016 00:00 0,3 C 88 % 1006,0 hPa 0,0 l/m 0,0 km/h W-NW -1,4 C 0,3 C 0,0 km/h
08.03.2016 01:00 0,2 C 88 % 1006,7 hPa 0,0 l/m 0,0 km/h W-NW -1,5 C 0,2 C 0,0 km/h
08.03.2016 02:00 0,3 C 88 % 1007,2 hPa 0,0 l/m 0,0 km/h W-NW -1,4 C 0,3 C 0,0 km/h
08.03.2016 03:00 0,2 C 88 % 1007,8 hPa 0,4 l/m 0,0 km/h W-NW -1,5 C 0,2 C 0,0 km/h
08.03.2016 04:00 0,2 C 88 % 1008,4 hPa 0,0 l/m 0,0 km/h W-NW -1,5 C 0,2 C 0,0 km/h
08.03.2016 05:00 0,2 C 88 % 1009,1 hPa 0,0 l/m 0,0 km/h W-NW -1,5 C 0,2 C 0,0 km/h
08.03.2016 06:00 0,3 C 88 % 1010,0 hPa 0,0 l/m 0,0 km/h W-NW -1,4 C 0,3 C 0,0 km/h
08.03.2016 07:00 0,4 C 88 % 1010,9 hPa 0,0 l/m 0,0 km/h W -1,3 C 0,4 C 0,0 km/h
08.03.2016 08:00 1,2 C 88 % 1011,7 hPa 0,0 l/m 0,0 km/h W -0,6 C 1,2 C 0,0 km/h
08.03.2016 09:00 3,1 C 88 % 1012,5 hPa 0,0 l/m 0,0 km/h W 1,3 C 3,1 C 0,0 km/h
08.03.2016 10:00 3,3 C 87 % 1012,9 hPa 0,0 l/m 0,0 km/h W 1,3 C 3,3 C 0,0 km/h
08.03.2016 11:00 4,9 C 86 % 1013,6 hPa 0,0 l/m 0,0 km/h W 2,8 C 4,9 C 0,0 km/h
08.03.2016 12:00 4,4 C 84 % 1014,1 hPa 1,7 l/m 0,0 km/h W-NW 1,9 C 4,4 C 0,0 km/h
08.03.2016 13:00 3,6 C 85 % 1014,0 hPa 1,7 l/m 0,0 km/h NW 1,3 C 3,6 C 0,0 km/h
08.03.2016 14:00 4,6 C 84 % 1014,3 hPa 1,7 l/m 0,0 km/h NW 2,1 C 4,6 C 0,0 km/h
08.03.2016 15:00 3,6 C 83 % 1014,7 hPa 1,2 l/m 0,0 km/h NW 1,0 C 3,6 C 0,0 km/h
08.03.2016 16:00 3,9 C 84 % 1014,7 hPa 0,4 l/m 0,0 km/h S-SO 1,4 C 3,9 C 0,0 km/h
08.03.2016 17:00 8,9 C 72 % 1015,1 hPa 0,8 l/m 0,0 km/h SO 4,1 C 8,9 C 0,0 km/h
08.03.2016 18:00 2,3 C 82 % 1015,7 hPa 0,4 l/m 0,0 km/h SO -0,4 C 2,3 C 0,0 km/h
08.03.2016 19:00 1,2 C 85 % 1016,1 hPa 0,4 l/m 0,0 km/h SO -1,0 C 1,2 C 0,0 km/h
08.03.2016 20:00 1,2 C 87 % 1016,5 hPa 0,0 l/m 0,0 km/h SO -0,7 C 1,2 C 0,0 km/h
08.03.2016 21:00 0,6 C 87 % 1017,0 hPa 0,0 l/m 0,0 km/h SO -1,3 C 0,6 C 0,0 km/h
08.03.2016 22:00 0,3 C 88 % 1016,6 hPa 0,0 l/m 0,0 km/h SO -1,4 C 0,3 C 0,0 km/h
08.03.2016 23:00 -1,1 C 88 % 1015,7 hPa 0,0 l/m 0,0 km/h SO -2,8 C -1,1 C 0,0 km/h
09.03.2016 00:00 -1,2 C 88 % 1014,8 hPa 0,0 l/m 0,0 km/h SO -2,9 C -1,2 C 0,0 km/h
09.03.2016 01:00 -1,9 C 88 % 1014,0 hPa 0,0 l/m 0,0 km/h SO -3,6 C -1,9 C 0,0 km/h
09.03.2016 02:00 -2,1 C 88 % 1013,7 hPa 0,0 l/m 0,0 km/h SO -3,8 C -2,1 C 0,0 km/h
09.03.2016 03:00 -2,4 C 88 % 1012,4 hPa 0,0 l/m 0,0 km/h SO -4,1 C -2,4 C 0,0 km/h
09.03.2016 04:00 -2,8 C 88 % 1011,5 hPa 0,0 l/m 0,0 km/h SO -4,5 C -2,8 C 0,0 km/h
09.03.2016 05:00 -3,1 C 88 % 1011,1 hPa 0,0 l/m 0,0 km/h O-SO -4,8 C -3,1 C 0,0 km/h
09.03.2016 06:00 -3,2 C 88 % 1010,5 hPa 0,0 l/m 0,0 km/h O -4,9 C -3,2 C 0,0 km/h
09.03.2016 07:00 -2,8 C 88 % 1009,6 hPa 0,0 l/m 0,0 km/h NW -4,5 C -2,8 C 0,0 km/h
09.03.2016 08:00 1,8 C 88 % 1008,9 hPa 0,0 l/m 0,0 km/h NO 0,0 C 1,8 C 0,0 km/h
09.03.2016 09:00 6,9 C 78 % 1007,7 hPa 0,0 l/m 0,0 km/h S-SO 3,3 C 6,9 C 0,0 km/h
09.03.2016 10:00 9,1 C 64 % 1006,2 hPa 0,4 l/m 4,5 km/h S 2,7 C 9,1 C 2,5 km/h
09.03.2016 11:00 8,1 C 61 % 1005,2 hPa 0,0 l/m 28,5 km/h SO 1,0 C -1,7 C 15,8 km/h
09.03.2016 12:00 9,1 C 57 % 1004,1 hPa 0,0 l/m 15,6 km/h S-SO 1,0 C 3,8 C 8,6 km/h
09.03.2016 13:00 11,0 C 53 % 1003,1 hPa 0,0 l/m 0,0 km/h S-SO 1,8 C 11,0 C 0,0 km/h
09.03.2016 14:00 14,1 C 47 % 1002,7 hPa 0,0 l/m 9,7 km/h S 3,0 C 12,3 C 5,4 km/h
09.03.2016 15:00 14,9 C 43 % 1002,0 hPa 0,0 l/m 9,1 km/h S-SO 2,4 C 13,4 C 5,0 km/h
09.03.2016 16:00 16,9 C 39 % 1001,6 hPa 0,0 l/m 0,0 km/h W 2,9 C 16,9 C 0,0 km/h
09.03.2016 17:00 12,1 C 46 % 1002,1 hPa 0,0 l/m 0,0 km/h SO 0,8 C 12,1 C 0,0 km/h
09.03.2016 18:00 4,2 C 67 % 1002,6 hPa 0,0 l/m 0,0 km/h SO -1,4 C 4,2 C 0,0 km/h
09.03.2016 19:00 1,9 C 76 % 1003,3 hPa 0,0 l/m 0,0 km/h O-SO -1,9 C 1,9 C 0,0 km/h
09.03.2016 20:00 0,9 C 82 % 1004,2 hPa 0,0 l/m 0,0 km/h O-SO -1,8 C 0,9 C 0,0 km/h
09.03.2016 21:00 1,2 C 84 % 1004,9 hPa 0,0 l/m 0,0 km/h SO -1,2 C 1,2 C 0,0 km/h
09.03.2016 22:00 1,9 C 84 % 1005,3 hPa 0,0 l/m 0,0 km/h SO -0,5 C 1,9 C 0,0 km/h
09.03.2016 23:00 2,1 C 85 % 1005,6 hPa 0,0 l/m 0,0 km/h O -0,2 C 2,1 C 0,0 km/h
10.03.2016 00:00 2,3 C 85 % 1006,2 hPa 0,0 l/m 0,0 km/h O 0,0 C 2,3 C 0,0 km/h
10.03.2016 01:00 1,8 C 85 % 1006,8 hPa 0,0 l/m 0,0 km/h SO -0,4 C 1,8 C 0,0 km/h
10.03.2016 02:00 1,0 C 86 % 1007,2 hPa 0,0 l/m 0,0 km/h O-SO -1,1 C 1,0 C 0,0 km/h
10.03.2016 03:00 0,4 C 87 % 1007,8 hPa 0,0 l/m 0,0 km/h SO -1,5 C 0,4 C 0,0 km/h
10.03.2016 04:00 -0,2 C 87 % 1008,8 hPa 0,0 l/m 0,0 km/h O -2,1 C -0,2 C 0,0 km/h
10.03.2016 05:00 -0,5 C 88 % 1009,6 hPa 0,0 l/m 0,0 km/h SO -2,2 C -0,5 C 0,0 km/h
10.03.2016 06:00 -0,1 C 88 % 1010,4 hPa 0,0 l/m 0,0 km/h SO -1,8 C -0,1 C 0,0 km/h
10.03.2016 07:00 1,3 C 88 % 1011,4 hPa 0,0 l/m 0,0 km/h SO -0,5 C 1,3 C 0,0 km/h
10.03.2016 08:00 3,9 C 87 % 1012,1 hPa 0,0 l/m 0,0 km/h N-NW 1,9 C 3,9 C 0,0 km/h
10.03.2016 09:00 9,4 C 72 % 1012,4 hPa 0,0 l/m 0,0 km/h N-NW 4,6 C 9,4 C 0,0 km/h
10.03.2016 10:00 11,0 C 62 % 1013,0 hPa 0,0 l/m 0,0 km/h NW 4,0 C 11,0 C 0,0 km/h
10.03.2016 11:00 12,7 C 58 % 1013,2 hPa 0,0 l/m 0,0 km/h W-NW 4,7 C 12,7 C 0,0 km/h
10.03.2016 12:00 13,8 C 58 % 1013,1 hPa 0,0 l/m 6,5 km/h W-NW 5,7 C 13,8 C 3,6 km/h
10.03.2016 13:00 14,9 C 53 % 1013,0 hPa 0,0 l/m 22,0 km/h N-NO 5,4 C 9,1 C 12,2 km/h
10.03.2016 14:00 16,8 C 47 % 1013,3 hPa 0,0 l/m 0,0 km/h N-NO 5,4 C 16,8 C 0,0 km/h
10.03.2016 15:00 18,5 C 42 % 1013,4 hPa 0,0 l/m 11,0 km/h N-NW 5,3 C 16,6 C 6,1 km/h
10.03.2016 16:00 15,7 C 46 % 1013,8 hPa 0,0 l/m 4,5 km/h NO 4,1 C 15,7 C 2,5 km/h
10.03.2016 17:00 13,5 C 48 % 1014,6 hPa 0,0 l/m 5,2 km/h N-NO 2,7 C 13,5 C 2,9 km/h
10.03.2016 18:00 7,4 C 60 % 1015,4 hPa 0,0 l/m 0,0 km/h N-NO 0,2 C 7,4 C 0,0 km/h
10.03.2016 19:00 4,1 C 69 % 1016,4 hPa 0,0 l/m 0,0 km/h O-SO -1,1 C 4,1 C 0,0 km/h
10.03.2016 20:00 2,4 C 78 % 1017,2 hPa 0,0 l/m 0,0 km/h O -1,0 C 2,4 C 0,0 km/h
10.03.2016 21:00 0,9 C 80 % 1017,4 hPa 0,0 l/m 0,0 km/h SO -2,2 C 0,9 C 0,0 km/h
10.03.2016 22:00 1,1 C 85 % 1017,7 hPa 0,0 l/m 0,0 km/h NO -1,1 C 1,1 C 0,0 km/h
10.03.2016 23:00 0,9 C 85 % 1017,7 hPa 0,0 l/m 0,0 km/h O-NO -1,3 C 0,9 C 0,0 km/h
11.03.2016 00:00 0,2 C 85 % 1018,0 hPa 0,0 l/m 0,0 km/h NO -2,0 C 0,2 C 0,0 km/h
11.03.2016 01:00 -0,4 C 86 % 1018,2 hPa 0,0 l/m 0,0 km/h NO -2,4 C -0,4 C 0,0 km/h
11.03.2016 02:00 -1,4 C 87 % 1018,5 hPa 0,0 l/m 0,0 km/h NO -3,3 C -1,4 C 0,0 km/h
11.03.2016 03:00 -2,2 C 87 % 1018,5 hPa 0,0 l/m 0,0 km/h NO -4,1 C -2,2 C 0,0 km/h
11.03.2016 04:00 -2,7 C 87 % 1018,7 hPa 0,0 l/m 0,0 km/h NO -4,6 C -2,7 C 0,0 km/h
11.03.2016 05:00 -2,2 C 88 % 1019,0 hPa 0,0 l/m 0,0 km/h NO -3,9 C -2,2 C 0,0 km/h
11.03.2016 06:00 -3,1 C 88 % 1019,4 hPa 0,0 l/m 0,0 km/h NO -4,8 C -3,1 C 0,0 km/h
11.03.2016 07:00 -2,6 C 88 % 1019,6 hPa 0,0 l/m 0,0 km/h NO -4,3 C -2,6 C 0,0 km/h
11.03.2016 08:00 0,1 C 88 % 1019,9 hPa 0,0 l/m 0,0 km/h W -1,6 C 0,1 C 0,0 km/h
11.03.2016 09:00 4,5 C 88 % 1020,0 hPa 0,0 l/m 0,0 km/h W 2,7 C 4,5 C 0,0 km/h
11.03.2016 10:00 8,8 C 73 % 1019,8 hPa 0,0 l/m 0,6 km/h W 4,2 C 8,8 C 0,4 km/h
11.03.2016 11:00 11,8 C 64 % 1019,6 hPa 0,0 l/m 0,0 km/h NO 5,2 C 11,8 C 0,0 km/h
11.03.2016 12:00 14,6 C 49 % 1019,2 hPa 0,0 l/m 0,0 km/h NO 4,0 C 14,6 C 0,0 km/h
11.03.2016 13:00 14,3 C 45 % 1019,0 hPa 0,0 l/m 0,0 km/h N-NO 2,5 C 14,3 C 0,0 km/h
11.03.2016 14:00 15,3 C 42 % 1018,8 hPa 0,0 l/m 0,0 km/h NO 2,5 C 15,3 C 0,0 km/h
11.03.2016 15:00 16,9 C 40 % 1019,0 hPa 0,0 l/m 3,2 km/h NO 3,2 C 16,9 C 1,8 km/h
11.03.2016 16:00 15,5 C 44 % 1019,3 hPa 0,0 l/m 0,0 km/h N-NO 3,3 C 15,5 C 0,0 km/h
11.03.2016 17:00 11,7 C 51 % 1020,1 hPa 0,0 l/m 0,0 km/h N-NO 1,9 C 11,7 C 0,0 km/h
11.03.2016 18:00 7,1 C 62 % 1020,9 hPa 0,0 l/m 0,0 km/h N-NO 0,3 C 7,1 C 0,0 km/h
11.03.2016 19:00 6,4 C 67 % 1021,2 hPa 0,0 l/m 0,0 km/h N-NO 0,7 C 6,4 C 0,0 km/h
11.03.2016 20:00 6,0 C 71 % 1021,6 hPa 0,0 l/m 0,0 km/h N-NO 1,1 C 6,0 C 0,0 km/h
11.03.2016 21:00 4,9 C 74 % 1021,5 hPa 0,0 l/m 0,0 km/h N-NO 0,7 C 4,9 C 0,0 km/h
11.03.2016 22:00 4,1 C 77 % 1021,6 hPa 0,0 l/m 0,0 km/h O 0,4 C 4,1 C 0,0 km/h
11.03.2016 23:00 3,0 C 80 % 1021,7 hPa 0,0 l/m 0,0 km/h SO -0,1 C 3,0 C 0,0 km/h
12.03.2016 00:00 1,9 C 83 % 1021,5 hPa 0,0 l/m 0,0 km/h SO -0,7 C 1,9 C 0,0 km/h
12.03.2016 01:00 2,7 C 84 % 1021,8 hPa 0,0 l/m 0,0 km/h SO 0,3 C 2,7 C 0,0 km/h
12.03.2016 02:00 2,5 C 84 % 1021,6 hPa 0,0 l/m 0,0 km/h NO 0,1 C 2,5 C 0,0 km/h
12.03.2016 03:00 2,3 C 85 % 1021,4 hPa 0,0 l/m 0,0 km/h N 0,0 C 2,3 C 0,0 km/h
12.03.2016 04:00 1,5 C 84 % 1021,1 hPa 0,0 l/m 0,0 km/h O-SO -0,9 C 1,5 C 0,0 km/h
12.03.2016 05:00 1,3 C 85 % 1021,5 hPa 0,0 l/m 0,0 km/h S-SW -0,9 C 1,3 C 0,0 km/h
12.03.2016 06:00 0,3 C 85 % 1022,0 hPa 0,0 l/m 0,0 km/h S-SW -1,9 C 0,3 C 0,0 km/h
12.03.2016 07:00 0,1 C 86 % 1022,3 hPa 0,0 l/m 0,0 km/h W -2,0 C 0,1 C 0,0 km/h
12.03.2016 08:00 5,6 C 83 % 1022,9 hPa 0,0 l/m 0,0 km/h W 2,9 C 5,6 C 0,0 km/h
12.03.2016 09:00 10,7 C 67 % 1022,9 hPa 0,0 l/m 0,0 km/h S 4,8 C 10,7 C 0,0 km/h
12.03.2016 10:00 9,5 C 66 % 1022,7 hPa 0,0 l/m 0,0 km/h O-NO 3,5 C 9,5 C 0,0 km/h
12.03.2016 11:00 13,6 C 60 % 1022,5 hPa 0,0 l/m 0,0 km/h N-NO 6,0 C 13,6 C 0,0 km/h
12.03.2016 12:00 12,3 C 57 % 1022,2 hPa 0,0 l/m 0,0 km/h N-NO 4,0 C 12,3 C 0,0 km/h
12.03.2016 13:00 13,2 C 54 % 1021,7 hPa 0,0 l/m 8,4 km/h N-NO 4,1 C 12,0 C 4,7 km/h
12.03.2016 14:00 12,1 C 56 % 1021,7 hPa 0,0 l/m 3,2 km/h O-NO 3,6 C 12,1 C 1,8 km/h
12.03.2016 15:00 10,8 C 58 % 1021,8 hPa 0,0 l/m 0,0 km/h NO 2,9 C 10,8 C 0,0 km/h
12.03.2016 16:00 10,4 C 60 % 1021,8 hPa 0,0 l/m 0,0 km/h O-NO 3,0 C 10,4 C 0,0 km/h
12.03.2016 17:00 9,2 C 61 % 1022,0 hPa 0,0 l/m 0,0 km/h O-NO 2,1 C 9,2 C 0,0 km/h
12.03.2016 18:00 7,9 C 65 % 1022,6 hPa 0,0 l/m 0,0 km/h NO 1,7 C 7,9 C 0,0 km/h
12.03.2016 19:00 7,6 C 67 % 1022,9 hPa 0,0 l/m 0,0 km/h O 1,9 C 7,6 C 0,0 km/h
12.03.2016 20:00 7,4 C 66 % 1023,2 hPa 0,0 l/m 0,0 km/h O-NO 1,5 C 7,4 C 0,0 km/h
12.03.2016 21:00 7,0 C 66 % 1023,5 hPa 0,0 l/m 0,0 km/h N-NO 1,1 C 7,0 C 0,0 km/h
12.03.2016 22:00 6,8 C 66 % 1023,2 hPa 0,0 l/m 0,0 km/h W 0,9 C 6,8 C 0,0 km/h
12.03.2016 23:00 4,5 C 74 % 1022,8 hPa 0,0 l/m 0,0 km/h W-NW 0,3 C 4,5 C 0,0 km/h
13.03.2016 00:00 3,3 C 78 % 1022,7 hPa 0,0 l/m 0,0 km/h W-NW -0,2 C 3,3 C 0,0 km/h
13.03.2016 01:00 3,0 C 80 % 1022,9 hPa 0,0 l/m 0,0 km/h W-NW -0,1 C 3,0 C 0,0 km/h
13.03.2016 02:00 2,7 C 81 % 1022,5 hPa 0,0 l/m 0,0 km/h W-SW -0,2 C 2,7 C 0,0 km/h
13.03.2016 03:00 2,7 C 83 % 1022,2 hPa 0,0 l/m 0,0 km/h W-SW 0,1 C 2,7 C 0,0 km/h
13.03.2016 04:00 2,6 C 84 % 1022,2 hPa 0,0 l/m 21,4 km/h W-NW 0,2 C -6,9 C 11,9 km/h
13.03.2016 05:00 2,7 C 83 % 1022,3 hPa 0,0 l/m 0,0 km/h N-NO 0,1 C 2,7 C 0,0 km/h
13.03.2016 06:00 3,2 C 84 % 1022,3 hPa 0,0 l/m 0,0 km/h N-NO 0,8 C 3,2 C 0,0 km/h
13.03.2016 07:00 5,2 C 79 % 1022,5 hPa 0,0 l/m 0,0 km/h NO 1,9 C 5,2 C 0,0 km/h
13.03.2016 08:00 5,9 C 74 % 1022,6 hPa 0,0 l/m 0,0 km/h O-SO 1,6 C 5,9 C 0,0 km/h
13.03.2016 09:00 6,6 C 72 % 1022,9 hPa 0,0 l/m 0,0 km/h N 1,9 C 6,6 C 0,0 km/h
13.03.2016 10:00 10,6 C 62 % 1023,2 hPa 0,0 l/m 0,0 km/h NO 3,6 C 10,6 C 0,0 km/h
13.03.2016 11:00 14,4 C 51 % 1023,1 hPa 0,0 l/m 0,0 km/h NO 4,4 C 14,4 C 0,0 km/h
13.03.2016 12:00 15,5 C 47 % 1023,1 hPa 0,0 l/m 14,9 km/h N-NO 4,2 C 11,8 C 8,3 km/h
13.03.2016 13:00 15,4 C 48 % 1022,5 hPa 0,0 l/m 7,8 km/h NO 4,4 C 14,6 C 4,3 km/h
13.03.2016 14:00 15,5 C 45 % 1022,2 hPa 0,0 l/m 0,0 km/h N-NO 3,6 C 15,5 C 0,0 km/h
13.03.2016 15:00 10,5 C 54 % 1022,1 hPa 0,0 l/m 0,0 km/h NO 1,6 C 10,5 C 0,0 km/h
13.03.2016 16:00 10,1 C 57 % 1022,1 hPa 0,0 l/m 0,0 km/h NO 2,0 C 10,1 C 0,0 km/h
13.03.2016 17:00 9,3 C 58 % 1022,1 hPa 0,0 l/m 0,0 km/h NO 1,5 C 9,3 C 0,0 km/h
13.03.2016 18:00 8,4 C 60 % 1022,5 hPa 0,0 l/m 0,0 km/h O 1,1 C 8,4 C 0,0 km/h
13.03.2016 19:00 7,9 C 62 % 1022,8 hPa 0,0 l/m 0,0 km/h NO 1,1 C 7,9 C 0,0 km/h
13.03.2016 20:00 8,2 C 60 % 1023,1 hPa 0,0 l/m 0,0 km/h N-NO 0,9 C 8,2 C 0,0 km/h
13.03.2016 21:00 8,0 C 62 % 1023,0 hPa 0,0 l/m 20,1 km/h NO 1,2 C 0,7 C 11,2 km/h
13.03.2016 22:00 7,4 C 63 % 1023,1 hPa 0,0 l/m 0,0 km/h NO 0,8 C 7,4 C 0,0 km/h
13.03.2016 23:00 7,2 C 64 % 1022,8 hPa 0,0 l/m 0,0 km/h N-NO 0,9 C 7,2 C 0,0 km/h
Min-Datum _ 09.03.16 09.03.16 07.03.16 - 07.03.16 - 09.03.16 13.03.16 07.03.16
_ Min-Zeit 06:42 16:42 14:42 - 00:42 - 06:42 04:42 00:42
Minimum _ -3,2 C 39 % 1000,7 hPa - 0,0 km/h - -4,9 C -6,9 C 0,0 km/h
Max-Datum _ 10.03.16 07.03.16 12.03.16 08.03.16 09.03.16 - 12.03.16 09.03.16 09.03.16
_ Max-Zeit 15:42 05:42 21:42 12:42 11:42 - 11:42 16:42 11:42
Maximum _ 18,5 C 88 % 1023,5 hPa 1,7 l/m 28,5 km/h
SO
- 6,0 C 16,9 C 15,8 km/h
SO
Durchschnitt _ 5,1 C 74 % 1014,1 hPa #10,4 l/m 1,7 km/h SO 0,5 C 4,7 C 1,0 km/h
www.sexauwetter.de